createdAt,value
2019-01-30T00:00:40.270Z,3.80
2019-01-30T00:01:41.293Z,3.80
2019-01-30T00:02:42.299Z,3.80
2019-01-30T00:03:43.316Z,3.80
2019-01-30T00:04:44.338Z,3.80
2019-01-30T00:05:45.673Z,3.80
2019-01-30T00:06:46.712Z,3.80
2019-01-30T00:08:01.299Z,3.80
2019-01-30T00:09:05.628Z,3.80
2019-01-30T00:10:07.937Z,3.90
2019-01-30T00:11:08.956Z,3.90
2019-01-30T00:12:09.984Z,3.90
2019-01-30T00:13:10.998Z,3.90
2019-01-30T00:14:11.999Z,3.90
2019-01-30T00:15:13.212Z,3.90
2019-01-30T00:16:14.233Z,3.90
2019-01-30T00:17:15.264Z,3.90
2019-01-30T00:18:16.379Z,3.90
2019-01-30T00:19:17.400Z,3.90
2019-01-30T00:20:18.429Z,3.90
2019-01-30T00:21:19.486Z,3.90
2019-01-30T00:22:20.568Z,3.90
2019-01-30T00:23:21.577Z,3.90
2019-01-30T00:24:22.620Z,3.90
2019-01-30T00:25:24.024Z,3.90
2019-01-30T00:26:25.252Z,3.90
2019-01-30T00:27:26.265Z,3.90
2019-01-30T00:28:27.293Z,3.90
2019-01-30T00:29:28.308Z,3.80
2019-01-30T00:30:29.623Z,3.80
2019-01-30T00:31:30.645Z,3.80
2019-01-30T00:32:31.656Z,3.80
2019-01-30T00:33:32.681Z,3.80
2019-01-30T00:34:33.709Z,3.80
2019-01-30T00:35:34.716Z,3.80
2019-01-30T00:36:35.752Z,3.90
2019-01-30T00:37:36.753Z,3.80
2019-01-30T00:38:37.763Z,3.80
2019-01-30T00:39:38.768Z,3.80
2019-01-30T00:40:39.799Z,3.90
2019-01-30T00:41:41.653Z,3.90
2019-01-30T00:42:42.665Z,3.90
2019-01-30T00:43:43.681Z,3.90
2019-01-30T00:44:44.696Z,3.80
2019-01-30T00:45:45.725Z,3.90
2019-01-30T00:46:46.740Z,3.90
2019-01-30T00:47:47.903Z,3.90
2019-01-30T00:48:49.096Z,3.90
2019-01-30T00:49:50.103Z,3.90
2019-01-30T00:50:51.121Z,3.90
2019-01-30T00:51:52.210Z,3.90
2019-01-30T00:52:53.244Z,4.00
2019-01-30T00:53:54.276Z,3.90
2019-01-30T00:54:55.291Z,3.90
2019-01-30T00:55:56.313Z,3.90
2019-01-30T00:56:57.344Z,3.80
2019-01-30T00:57:58.355Z,3.80
2019-01-30T00:58:59.369Z,3.80
2019-01-30T01:00:00.383Z,3.80
2019-01-30T01:01:01.387Z,3.80
2019-01-30T01:02:02.832Z,3.80
2019-01-30T01:03:04.044Z,3.80
2019-01-30T01:04:05.058Z,3.80
2019-01-30T01:05:06.272Z,3.80
2019-01-30T01:06:07.279Z,3.80
2019-01-30T01:07:08.308Z,3.80
2019-01-30T01:08:09.440Z,3.80
2019-01-30T01:09:10.447Z,3.80
2019-01-30T01:10:15.269Z,3.80
2019-01-30T01:11:16.285Z,3.80
2019-01-30T01:12:17.440Z,3.80
2019-01-30T01:13:18.436Z,3.80
2019-01-30T01:14:19.453Z,3.90
2019-01-30T01:15:20.471Z,3.90
2019-01-30T01:16:21.479Z,3.90
2019-01-30T01:17:22.540Z,3.90
2019-01-30T01:18:23.553Z,3.90
2019-01-30T01:19:24.559Z,3.90
2019-01-30T01:20:25.576Z,3.90
2019-01-30T01:21:26.692Z,4.00
2019-01-30T01:22:27.716Z,4.00
2019-01-30T01:23:28.735Z,4.00
2019-01-30T01:24:29.752Z,4.00
2019-01-30T01:25:30.768Z,4.00
2019-01-30T01:26:31.789Z,3.90
2019-01-30T01:27:32.831Z,3.90
2019-01-30T01:28:33.952Z,3.90
2019-01-30T01:29:34.959Z,3.90
2019-01-30T01:30:36.415Z,3.80
2019-01-30T01:31:37.440Z,3.80
2019-01-30T01:32:38.464Z,3.80
2019-01-30T01:33:39.481Z,3.80
2019-01-30T01:34:40.592Z,3.80
2019-01-30T01:35:41.604Z,3.80
2019-01-30T01:36:42.617Z,3.90
2019-01-30T01:37:43.643Z,3.90
2019-01-30T01:38:44.677Z,3.90
2019-01-30T01:39:45.680Z,3.90
2019-01-30T01:40:46.737Z,3.90
2019-01-30T01:41:47.752Z,3.90
2019-01-30T01:42:48.899Z,4.00
2019-01-30T01:43:49.917Z,4.00
2019-01-30T01:44:50.935Z,3.90
2019-01-30T01:45:52.289Z,3.90
2019-01-30T01:46:53.486Z,3.90
2019-01-30T01:47:54.526Z,3.90
2019-01-30T01:48:55.529Z,3.90
2019-01-30T01:49:56.540Z,4.00
2019-01-30T01:50:57.548Z,4.00
2019-01-30T01:51:58.860Z,4.00
2019-01-30T01:52:59.892Z,4.00
2019-01-30T01:54:00.908Z,4.00
2019-01-30T01:55:03.028Z,4.00
2019-01-30T01:56:04.045Z,4.00
2019-01-30T01:57:05.051Z,4.00
2019-01-30T01:58:06.079Z,4.00
2019-01-30T01:59:07.096Z,4.00
2019-01-30T02:00:16.628Z,4.10
2019-01-30T02:01:17.643Z,4.10
2019-01-30T02:02:18.656Z,4.10
2019-01-30T02:03:19.686Z,4.10
2019-01-30T02:04:20.696Z,4.10
2019-01-30T02:05:22.564Z,4.00
2019-01-30T02:06:23.677Z,4.00
2019-01-30T02:07:24.692Z,4.00
2019-01-30T02:08:25.763Z,4.00
2019-01-30T02:09:26.780Z,4.00
2019-01-30T02:10:28.188Z,4.10
2019-01-30T02:11:29.199Z,4.10
2019-01-30T02:12:30.215Z,4.10
2019-01-30T02:13:31.282Z,4.10
2019-01-30T02:14:32.335Z,4.10
2019-01-30T02:15:33.347Z,4.10
2019-01-30T02:16:34.369Z,4.20
2019-01-30T02:17:35.375Z,4.20
2019-01-30T02:18:36.405Z,4.20
2019-01-30T02:19:37.420Z,4.20
2019-01-30T02:20:38.800Z,4.30
2019-01-30T02:21:39.831Z,4.30
2019-01-30T02:22:40.864Z,4.30
2019-01-30T02:23:41.884Z,4.30
2019-01-30T02:24:42.901Z,4.30
2019-01-30T02:25:43.908Z,4.30
2019-01-30T02:26:44.925Z,4.30
2019-01-30T02:27:45.940Z,4.30
2019-01-30T02:28:46.979Z,4.30
2019-01-30T02:29:47.989Z,4.30
2019-01-30T02:30:49.000Z,4.30
2019-01-30T02:31:50.016Z,4.30
2019-01-30T02:32:51.536Z,4.30
2019-01-30T02:33:52.686Z,4.30
2019-01-30T02:34:53.772Z,4.20
2019-01-30T02:35:54.867Z,4.20
2019-01-30T02:36:55.955Z,4.10
2019-01-30T02:37:56.971Z,4.00
2019-01-30T02:38:57.992Z,4.00
2019-01-30T02:39:59.010Z,3.90
2019-01-30T02:41:00.335Z,3.80
2019-01-30T02:42:01.342Z,3.80
2019-01-30T02:43:02.349Z,3.80
2019-01-30T02:44:03.478Z,3.90
2019-01-30T02:45:07.900Z,3.90
2019-01-30T02:46:08.916Z,3.90
2019-01-30T02:47:09.928Z,4.00
2019-01-30T02:48:10.940Z,4.00
2019-01-30T02:49:11.961Z,4.00
2019-01-30T02:50:14.980Z,4.00
2019-01-30T02:51:16.006Z,4.10
2019-01-30T02:52:17.011Z,4.10
2019-01-30T02:53:18.025Z,4.10
2019-01-30T02:54:19.047Z,4.20
2019-01-30T02:55:20.364Z,4.20
2019-01-30T02:56:21.371Z,4.20
2019-01-30T02:57:22.383Z,4.20
2019-01-30T02:58:23.504Z,4.20
2019-01-30T02:59:24.528Z,4.20
2019-01-30T03:00:58.527Z,4.20
2019-01-30T03:01:53.164Z,4.30
2019-01-30T03:02:54.157Z,4.30
2019-01-30T03:03:55.245Z,4.30
2019-01-30T03:04:56.340Z,4.30
2019-01-30T03:05:57.360Z,4.30
2019-01-30T03:06:58.472Z,4.30
2019-01-30T03:07:59.503Z,4.30
2019-01-30T03:09:00.697Z,4.20
2019-01-30T03:10:03.549Z,4.20
2019-01-30T03:11:04.563Z,4.20
2019-01-30T03:12:05.573Z,4.20
2019-01-30T03:13:06.576Z,4.20
2019-01-30T03:14:07.595Z,4.20
2019-01-30T03:15:11.008Z,4.20
2019-01-30T03:16:12.339Z,4.20
2019-01-30T03:17:13.347Z,4.10
2019-01-30T03:18:14.376Z,4.10
2019-01-30T03:19:15.389Z,4.00
2019-01-30T03:20:24.516Z,4.00
2019-01-30T03:21:25.527Z,4.00
2019-01-30T03:22:26.533Z,4.00
2019-01-30T03:23:27.548Z,4.00
2019-01-30T03:24:28.573Z,4.00
2019-01-30T03:25:29.811Z,3.90
2019-01-30T03:26:30.820Z,3.90
2019-01-30T03:27:31.838Z,3.90
2019-01-30T03:28:32.877Z,4.00
2019-01-30T03:29:33.910Z,4.00
2019-01-30T03:30:35.023Z,4.00
2019-01-30T03:31:36.039Z,4.00
2019-01-30T03:32:37.156Z,3.90
2019-01-30T03:33:38.155Z,3.90
2019-01-30T03:34:39.224Z,3.90
2019-01-30T03:35:40.303Z,3.90
2019-01-30T03:36:44.295Z,3.80
2019-01-30T03:37:45.425Z,3.80
2019-01-30T03:38:46.428Z,3.80
2019-01-30T03:39:47.498Z,3.80
2019-01-30T03:40:48.512Z,3.80
2019-01-30T03:41:49.580Z,3.80
2019-01-30T03:42:50.703Z,3.90
2019-01-30T03:43:51.707Z,3.80
2019-01-30T03:44:52.749Z,3.90
2019-01-30T03:45:53.763Z,3.80
2019-01-30T03:46:54.797Z,3.90
2019-01-30T03:47:55.814Z,3.90
2019-01-30T03:48:56.883Z,3.90
2019-01-30T03:49:57.912Z,3.90
2019-01-30T03:50:58.924Z,3.90
2019-01-30T03:51:59.936Z,3.90
2019-01-30T03:53:00.941Z,3.90
2019-01-30T03:54:01.962Z,3.90
2019-01-30T03:55:05.588Z,3.90
2019-01-30T03:56:06.719Z,3.90
2019-01-30T03:57:07.724Z,4.00
2019-01-30T03:58:08.745Z,4.20
2019-01-30T03:59:09.753Z,4.10
2019-01-30T04:00:14.484Z,4.10
2019-01-30T04:01:26.260Z,4.10
2019-01-30T04:02:18.399Z,4.10
2019-01-30T04:03:19.416Z,4.10
2019-01-30T04:04:20.425Z,4.20
2019-01-30T04:05:22.048Z,4.20
2019-01-30T04:06:23.106Z,4.10
2019-01-30T04:07:24.101Z,4.10
2019-01-30T04:08:25.125Z,4.10
2019-01-30T04:09:26.134Z,4.00
2019-01-30T04:10:27.154Z,4.10
2019-01-30T04:11:28.169Z,4.10
2019-01-30T04:12:29.179Z,4.00
2019-01-30T04:13:30.196Z,4.00
2019-01-30T04:14:31.212Z,4.00
2019-01-30T04:15:32.283Z,4.00
2019-01-30T04:16:33.288Z,4.00
2019-01-30T04:17:34.303Z,4.00
2019-01-30T04:18:35.308Z,4.00
2019-01-30T04:19:36.324Z,4.00
2019-01-30T04:20:37.346Z,4.00
2019-01-30T04:21:38.377Z,4.00
2019-01-30T04:22:39.387Z,4.10
2019-01-30T04:23:40.418Z,4.10
2019-01-30T04:24:41.431Z,4.10
2019-01-30T04:25:42.464Z,4.20
2019-01-30T04:26:43.492Z,4.20
2019-01-30T04:27:44.515Z,4.10
2019-01-30T04:28:45.524Z,4.10
2019-01-30T04:29:46.531Z,4.10
2019-01-30T04:30:47.560Z,4.10
2019-01-30T04:31:48.573Z,4.10
2019-01-30T04:32:49.600Z,4.10
2019-01-30T04:33:50.602Z,4.20
2019-01-30T04:34:51.606Z,4.10
2019-01-30T04:35:52.659Z,4.10
2019-01-30T04:36:53.743Z,4.10
2019-01-30T04:37:54.773Z,4.10
2019-01-30T04:38:55.783Z,4.10
2019-01-30T04:39:56.797Z,4.10
2019-01-30T04:40:57.958Z,4.20
2019-01-30T04:41:58.989Z,4.20
2019-01-30T04:42:59.996Z,4.20
2019-01-30T04:44:01.017Z,4.30
2019-01-30T04:45:04.741Z,4.30
2019-01-30T04:46:05.773Z,4.30
2019-01-30T04:47:06.792Z,4.40
2019-01-30T04:48:07.818Z,4.30
2019-01-30T04:49:08.856Z,4.30
2019-01-30T04:50:09.990Z,4.30
2019-01-30T04:51:11.007Z,4.30
2019-01-30T04:52:12.028Z,4.30
2019-01-30T04:53:13.149Z,4.30
2019-01-30T04:54:14.161Z,4.30
2019-01-30T04:55:15.372Z,4.30
2019-01-30T04:56:16.403Z,4.30
2019-01-30T04:57:17.516Z,4.30
2019-01-30T04:58:18.531Z,4.30
2019-01-30T04:59:19.553Z,4.30
2019-01-30T05:00:23.588Z,4.30
2019-01-30T05:01:24.620Z,4.30
2019-01-30T05:02:25.636Z,4.30
2019-01-30T05:03:26.663Z,4.30
2019-01-30T05:04:27.659Z,4.30
2019-01-30T05:05:28.669Z,4.30
2019-01-30T05:06:29.688Z,4.30
2019-01-30T05:07:30.697Z,4.30
2019-01-30T05:08:31.726Z,4.20
2019-01-30T05:09:32.750Z,4.20
2019-01-30T05:10:33.865Z,4.10
2019-01-30T05:11:34.880Z,4.10
2019-01-30T05:12:35.917Z,4.10
2019-01-30T05:13:36.920Z,4.10
2019-01-30T05:14:37.955Z,4.00
2019-01-30T05:15:38.974Z,4.00
2019-01-30T05:16:39.995Z,4.10
2019-01-30T05:17:41.004Z,4.10
2019-01-30T05:18:42.032Z,4.10
2019-01-30T05:19:43.052Z,4.10
2019-01-30T05:20:44.053Z,4.20
2019-01-30T05:21:45.909Z,4.20
2019-01-30T05:22:46.953Z,4.30
2019-01-30T05:23:48.044Z,4.30
2019-01-30T05:24:49.050Z,4.30
2019-01-30T05:25:50.065Z,4.30
2019-01-30T05:26:51.084Z,4.30
2019-01-30T05:27:52.088Z,4.40
2019-01-30T05:28:53.164Z,4.40
2019-01-30T05:29:54.200Z,4.50
2019-01-30T05:30:55.225Z,4.50
2019-01-30T05:32:01.287Z,4.50
2019-01-30T05:32:59.185Z,4.50
2019-01-30T05:34:00.245Z,4.60
2019-01-30T05:35:01.264Z,4.60
2019-01-30T05:36:02.689Z,4.60
2019-01-30T05:37:03.713Z,4.70
2019-01-30T05:38:04.823Z,4.70
2019-01-30T05:39:06.854Z,4.70
2019-01-30T05:40:14.013Z,4.70
2019-01-30T05:41:15.037Z,4.60
2019-01-30T05:42:16.051Z,4.60
2019-01-30T05:43:17.100Z,4.50
2019-01-30T05:44:18.125Z,4.50
2019-01-30T05:45:19.271Z,4.50
2019-01-30T05:46:20.300Z,4.50
2019-01-30T05:47:21.334Z,4.50
2019-01-30T05:48:22.355Z,4.40
2019-01-30T05:49:23.496Z,4.40
2019-01-30T05:50:24.494Z,4.40
2019-01-30T05:51:25.508Z,4.40
2019-01-30T05:52:26.533Z,4.40
2019-01-30T05:53:27.538Z,4.40
2019-01-30T05:54:28.554Z,4.50
2019-01-30T05:55:29.559Z,4.50
2019-01-30T05:56:30.576Z,4.60
2019-01-30T05:57:31.609Z,4.60
2019-01-30T05:58:32.628Z,4.60
2019-01-30T05:59:33.642Z,4.60
2019-01-30T06:00:36.776Z,4.60
2019-01-30T06:01:37.809Z,4.60
2019-01-30T06:02:38.839Z,4.60
2019-01-30T06:03:39.860Z,4.70
2019-01-30T06:04:40.872Z,4.70
2019-01-30T06:05:43.114Z,4.70
2019-01-30T06:06:44.443Z,4.70
2019-01-30T06:07:45.480Z,4.70
2019-01-30T06:08:46.495Z,4.70
2019-01-30T06:09:47.506Z,4.70
2019-01-30T06:10:48.524Z,4.70
2019-01-30T06:11:49.554Z,4.70
2019-01-30T06:12:50.585Z,4.70
2019-01-30T06:13:51.614Z,4.70
2019-01-30T06:14:52.625Z,4.70
2019-01-30T06:15:53.736Z,4.70
2019-01-30T06:16:54.766Z,4.80
2019-01-30T06:17:55.832Z,4.80
2019-01-30T06:18:56.843Z,4.80
2019-01-30T06:19:57.857Z,4.80
2019-01-30T06:20:58.874Z,4.70
2019-01-30T06:21:59.896Z,4.80
2019-01-30T06:23:01.808Z,4.80
2019-01-30T06:24:03.246Z,4.80
2019-01-30T06:25:06.768Z,4.80
2019-01-30T06:26:07.795Z,4.80
2019-01-30T06:27:08.812Z,4.90
2019-01-30T06:28:09.847Z,4.90
2019-01-30T06:29:10.864Z,4.90
2019-01-30T06:30:15.083Z,4.90
2019-01-30T06:31:16.095Z,4.90
2019-01-30T06:32:21.949Z,4.90
2019-01-30T06:33:20.032Z,5.00
2019-01-30T06:34:21.045Z,5.00
2019-01-30T06:35:22.368Z,5.00
2019-01-30T06:36:23.525Z,5.00
2019-01-30T06:37:24.655Z,5.00
2019-01-30T06:38:25.829Z,5.00
2019-01-30T06:39:26.904Z,5.00
2019-01-30T06:40:30.013Z,5.00
2019-01-30T06:41:31.082Z,5.00
2019-01-30T06:42:32.137Z,5.00
2019-01-30T06:43:33.155Z,5.00
2019-01-30T06:44:34.180Z,5.00
2019-01-30T06:45:35.228Z,5.10
2019-01-30T06:46:36.276Z,5.10
2019-01-30T06:47:37.403Z,5.10
2019-01-30T06:48:38.416Z,5.10
2019-01-30T06:49:39.497Z,5.10
2019-01-30T06:50:40.503Z,5.10
2019-01-30T06:51:41.523Z,5.10
2019-01-30T06:52:42.559Z,5.20
2019-01-30T06:53:43.588Z,5.10
2019-01-30T06:54:44.609Z,5.10
2019-01-30T06:55:45.624Z,5.10
2019-01-30T06:56:46.704Z,5.10
2019-01-30T06:57:47.719Z,5.10
2019-01-30T06:58:48.744Z,5.10
2019-01-30T06:59:49.778Z,5.10
2019-01-30T07:00:52.751Z,5.10
2019-01-30T07:01:54.051Z,5.10
2019-01-30T07:02:55.800Z,5.00
2019-01-30T07:03:56.834Z,5.00
2019-01-30T07:04:57.844Z,5.00
2019-01-30T07:05:58.863Z,5.00
2019-01-30T07:06:59.885Z,5.00
2019-01-30T07:08:00.912Z,5.00
2019-01-30T07:09:05.748Z,5.00
2019-01-30T07:10:16.209Z,5.10
2019-01-30T07:11:17.218Z,5.10
2019-01-30T07:12:18.225Z,5.10
2019-01-30T07:13:19.318Z,5.10
2019-01-30T07:14:20.360Z,5.10
2019-01-30T07:15:21.479Z,5.10
2019-01-30T07:16:22.488Z,5.10
2019-01-30T07:17:23.555Z,5.10
2019-01-30T07:18:24.636Z,5.10
2019-01-30T07:19:25.693Z,5.10
2019-01-30T07:20:26.696Z,5.10
2019-01-30T07:21:27.719Z,5.10
2019-01-30T07:22:29.032Z,5.10
2019-01-30T07:23:30.071Z,5.10
2019-01-30T07:24:31.111Z,5.10
2019-01-30T07:25:32.128Z,5.10
2019-01-30T07:26:33.179Z,5.10
2019-01-30T07:27:34.205Z,5.10
2019-01-30T07:28:35.228Z,5.10
2019-01-30T07:29:36.244Z,5.20
2019-01-30T07:30:37.263Z,5.20
2019-01-30T07:31:38.633Z,5.20
2019-01-30T07:32:42.230Z,5.20
2019-01-30T07:33:42.632Z,5.20
2019-01-30T07:34:43.743Z,5.30
2019-01-30T07:35:44.751Z,5.30
2019-01-30T07:36:45.774Z,5.30
2019-01-30T07:37:47.090Z,5.30
2019-01-30T07:38:48.124Z,5.30
2019-01-30T07:39:49.372Z,5.30
2019-01-30T07:40:50.493Z,5.30
2019-01-30T07:41:51.511Z,5.30
2019-01-30T07:42:52.520Z,5.30
2019-01-30T07:43:53.549Z,5.30
2019-01-30T07:44:54.587Z,5.30
2019-01-30T07:45:55.596Z,5.40
2019-01-30T07:46:56.605Z,5.40
2019-01-30T07:47:57.650Z,5.40
2019-01-30T07:48:58.660Z,5.40
2019-01-30T07:49:59.686Z,5.50
2019-01-30T07:51:00.702Z,5.40
2019-01-30T07:52:01.720Z,5.40
2019-01-30T07:53:03.131Z,5.40
2019-01-30T07:54:04.245Z,5.40
2019-01-30T07:55:08.583Z,5.40
2019-01-30T07:56:09.660Z,5.40
2019-01-30T07:57:10.676Z,5.40
2019-01-30T07:58:11.688Z,5.50
2019-01-30T07:59:13.100Z,5.50
2019-01-30T08:00:17.971Z,5.50
2019-01-30T08:01:19.064Z,5.50
2019-01-30T08:02:21.884Z,5.40
2019-01-30T08:03:23.001Z,5.40
2019-01-30T08:04:24.092Z,5.40
2019-01-30T08:05:25.118Z,5.40
2019-01-30T08:06:26.123Z,5.40
2019-01-30T08:07:27.786Z,5.40
2019-01-30T08:08:28.853Z,5.40
2019-01-30T08:09:29.892Z,5.40
2019-01-30T08:10:30.908Z,5.50
2019-01-30T08:11:33.072Z,5.50
2019-01-30T08:12:34.371Z,5.50
2019-01-30T08:13:35.444Z,5.50
2019-01-30T08:14:36.577Z,5.50
2019-01-30T08:15:37.583Z,5.50
2019-01-30T08:16:38.599Z,5.60
2019-01-30T08:17:39.625Z,5.60
2019-01-30T08:18:40.623Z,5.60
2019-01-30T08:19:41.760Z,5.60
2019-01-30T08:20:43.239Z,5.60
2019-01-30T08:21:44.256Z,5.60
2019-01-30T08:22:45.488Z,5.60
2019-01-30T08:23:46.498Z,5.60
2019-01-30T08:24:47.562Z,5.60
2019-01-30T08:25:48.808Z,5.70
2019-01-30T08:26:50.209Z,5.70
2019-01-30T08:27:51.524Z,5.80
2019-01-30T08:28:52.676Z,5.80
2019-01-30T08:29:54.066Z,5.80
2019-01-30T08:30:55.258Z,5.90
2019-01-30T08:31:56.476Z,5.90
2019-01-30T08:33:04.623Z,5.90
2019-01-30T08:34:00.697Z,5.90
2019-01-30T08:35:02.412Z,5.90
2019-01-30T08:36:03.424Z,5.90
2019-01-30T08:37:04.453Z,5.90
2019-01-30T08:38:05.484Z,5.90
2019-01-30T08:39:06.934Z,5.90
2019-01-30T08:40:09.262Z,5.90
2019-01-30T08:41:10.288Z,5.90
2019-01-30T08:42:11.393Z,5.90
2019-01-30T08:43:12.707Z,5.90
2019-01-30T08:44:13.728Z,5.90
2019-01-30T08:45:20.948Z,5.90
2019-01-30T08:46:21.951Z,5.90
2019-01-30T08:47:22.969Z,5.90
2019-01-30T08:48:24.171Z,6.00
2019-01-30T08:49:25.193Z,6.00
2019-01-30T08:50:26.500Z,6.00
2019-01-30T08:51:27.523Z,6.00
2019-01-30T08:52:28.736Z,6.00
2019-01-30T08:53:29.747Z,6.00
2019-01-30T08:54:30.772Z,6.00
2019-01-30T08:55:31.827Z,6.00
2019-01-30T08:56:38.721Z,6.00
2019-01-30T08:57:35.841Z,6.00
2019-01-30T08:58:36.979Z,6.00
2019-01-30T08:59:37.999Z,6.00
2019-01-30T09:00:39.312Z,6.00
2019-01-30T09:01:40.316Z,6.10
2019-01-30T09:02:41.333Z,6.00
2019-01-30T09:03:42.705Z,6.10
2019-01-30T09:05:04.913Z,6.00
2019-01-30T09:06:05.941Z,6.00
2019-01-30T09:07:06.952Z,6.00
2019-01-30T09:08:08.851Z,6.00
2019-01-30T09:09:10.228Z,6.00
2019-01-30T09:10:14.176Z,6.00
2019-01-30T09:11:15.367Z,6.00
2019-01-30T09:12:16.483Z,6.00
2019-01-30T09:13:17.600Z,6.00
2019-01-30T09:14:18.629Z,6.00
2019-01-30T09:15:21.456Z,6.00
2019-01-30T09:16:22.501Z,6.10
2019-01-30T09:17:23.520Z,6.10
2019-01-30T09:18:24.575Z,6.10
2019-01-30T09:19:25.593Z,6.10
2019-01-30T09:20:26.760Z,6.10
2019-01-30T09:21:27.784Z,6.20
2019-01-30T09:22:28.820Z,6.20
2019-01-30T09:23:29.839Z,6.20
2019-01-30T09:24:30.864Z,6.20
2019-01-30T09:25:31.883Z,6.20
2019-01-30T09:26:32.892Z,6.20
2019-01-30T09:27:33.960Z,6.30
2019-01-30T09:28:34.963Z,6.30
2019-01-30T09:29:35.992Z,6.30
2019-01-30T09:30:37.308Z,6.30
2019-01-30T09:31:38.593Z,6.30
2019-01-30T09:32:39.612Z,6.30
2019-01-30T09:33:40.670Z,6.40
2019-01-30T09:34:41.927Z,6.40
2019-01-30T09:35:43.025Z,6.40
2019-01-30T09:36:44.035Z,6.40
2019-01-30T09:37:45.354Z,6.40
2019-01-30T09:38:46.378Z,6.40
2019-01-30T09:39:48.685Z,6.40
2019-01-30T09:40:49.863Z,6.50
2019-01-30T09:41:50.932Z,6.50
2019-01-30T09:42:52.052Z,6.50
2019-01-30T09:43:53.133Z,6.50
2019-01-30T09:44:54.944Z,6.50
2019-01-30T09:45:56.060Z,6.50
2019-01-30T09:46:57.080Z,6.50
2019-01-30T09:47:58.095Z,6.60
2019-01-30T09:48:59.116Z,6.60
2019-01-30T09:50:00.228Z,6.50
2019-01-30T09:51:01.263Z,6.60
2019-01-30T09:52:02.586Z,6.70
2019-01-30T09:53:03.992Z,6.70
2019-01-30T09:54:05.012Z,6.80
2019-01-30T09:55:08.897Z,6.80
2019-01-30T09:56:09.986Z,6.80
2019-01-30T09:57:11.022Z,6.90
2019-01-30T09:58:12.129Z,6.90
2019-01-30T09:59:13.136Z,6.90
2019-01-30T10:00:24.284Z,6.90
2019-01-30T10:01:25.304Z,7.00
2019-01-30T10:02:26.316Z,7.00
2019-01-30T10:03:36.150Z,7.00
2019-01-30T10:04:32.533Z,7.00
2019-01-30T10:05:37.449Z,7.00
2019-01-30T10:06:39.551Z,7.00
2019-01-30T10:07:40.852Z,7.00
2019-01-30T10:08:42.136Z,7.00
2019-01-30T10:09:43.441Z,7.00
2019-01-30T10:10:44.571Z,7.00
2019-01-30T10:11:45.584Z,6.90
2019-01-30T10:12:46.608Z,6.90
2019-01-30T10:13:47.620Z,6.80
2019-01-30T10:14:48.638Z,6.80
2019-01-30T10:15:49.660Z,6.80
2019-01-30T10:16:50.708Z,6.80
2019-01-30T10:17:51.773Z,6.80
2019-01-30T10:18:52.843Z,6.70
2019-01-30T10:19:53.864Z,6.70
2019-01-30T10:20:54.908Z,6.80
2019-01-30T10:21:55.923Z,6.80
2019-01-30T10:22:57.074Z,6.80
2019-01-30T10:23:58.123Z,6.80
2019-01-30T10:24:59.130Z,6.80
2019-01-30T10:26:00.149Z,6.90
2019-01-30T10:27:01.167Z,6.90
2019-01-30T10:28:03.187Z,6.90
2019-01-30T10:29:04.471Z,6.90
2019-01-30T10:30:12.185Z,6.90
2019-01-30T10:31:13.245Z,6.90
2019-01-30T10:32:14.359Z,7.00
2019-01-30T10:33:15.383Z,7.00
2019-01-30T10:34:16.797Z,7.10
2019-01-30T10:35:18.110Z,7.10
2019-01-30T10:36:19.237Z,7.20
2019-01-30T10:37:20.248Z,7.30
2019-01-30T10:38:21.337Z,7.30
2019-01-30T10:39:22.452Z,7.40
2019-01-30T10:40:23.584Z,7.50
2019-01-30T10:41:24.606Z,7.50
2019-01-30T10:42:25.617Z,7.50
2019-01-30T10:43:26.624Z,7.50
2019-01-30T10:44:27.638Z,7.40
2019-01-30T10:45:28.648Z,7.40
2019-01-30T10:46:29.667Z,7.30
2019-01-30T10:47:30.676Z,7.30
2019-01-30T10:48:31.704Z,7.30
2019-01-30T10:49:32.762Z,7.30
2019-01-30T10:50:33.844Z,7.30
2019-01-30T10:51:35.133Z,7.30
2019-01-30T10:52:36.209Z,7.30
2019-01-30T10:53:37.231Z,7.20
2019-01-30T10:54:38.528Z,7.20
2019-01-30T10:55:39.543Z,7.20
2019-01-30T10:56:40.604Z,7.20
2019-01-30T10:57:43.221Z,7.20
2019-01-30T10:58:44.250Z,7.20
2019-01-30T10:59:45.305Z,7.20
2019-01-30T11:00:48.443Z,7.10
2019-01-30T11:01:49.482Z,7.00
2019-01-30T11:02:50.516Z,7.00
2019-01-30T11:03:57.300Z,7.00
2019-01-30T11:04:54.543Z,7.00
2019-01-30T11:05:55.554Z,7.00
2019-01-30T11:06:56.607Z,7.00
2019-01-30T11:07:57.695Z,6.90
2019-01-30T11:08:58.737Z,6.90
2019-01-30T11:09:59.744Z,6.90
2019-01-30T11:11:07.527Z,6.90
2019-01-30T11:12:03.689Z,6.90
2019-01-30T11:13:05.608Z,6.90
2019-01-30T11:14:06.820Z,6.80
2019-01-30T11:15:11.568Z,6.80
2019-01-30T11:16:15.730Z,6.80
2019-01-30T11:17:16.805Z,6.80
2019-01-30T11:18:17.876Z,6.90
2019-01-30T11:19:18.894Z,6.90
2019-01-30T11:20:21.907Z,6.90
2019-01-30T11:21:23.252Z,6.90
2019-01-30T11:22:24.267Z,7.00
2019-01-30T11:23:25.711Z,7.00
2019-01-30T11:24:27.360Z,7.00
2019-01-30T11:25:34.348Z,7.00
2019-01-30T11:26:36.568Z,7.00
2019-01-30T11:27:37.761Z,7.00
2019-01-30T11:28:38.911Z,7.00
2019-01-30T11:29:39.958Z,7.10
2019-01-30T11:30:40.994Z,7.10
2019-01-30T11:31:42.119Z,7.10
2019-01-30T11:32:43.229Z,7.00
2019-01-30T11:33:44.253Z,7.00
2019-01-30T11:34:45.268Z,7.00
2019-01-30T11:35:46.290Z,6.90
2019-01-30T11:36:47.308Z,7.00
2019-01-30T11:37:48.329Z,7.00
2019-01-30T11:38:49.341Z,7.00
2019-01-30T11:39:50.364Z,7.00
2019-01-30T11:40:51.677Z,7.00
2019-01-30T11:41:52.749Z,7.00
2019-01-30T11:42:53.855Z,7.00
2019-01-30T11:43:54.947Z,6.90
2019-01-30T11:44:55.965Z,6.90
2019-01-30T11:45:56.980Z,6.80
2019-01-30T11:46:57.999Z,6.80
2019-01-30T11:47:59.219Z,6.80
2019-01-30T11:49:00.235Z,6.90
2019-01-30T11:50:01.450Z,6.90
2019-01-30T11:51:02.561Z,6.80
2019-01-30T11:52:03.784Z,6.80
2019-01-30T11:53:05.000Z,6.80
2019-01-30T11:54:06.017Z,6.70
2019-01-30T11:55:10.135Z,6.70
2019-01-30T11:56:11.165Z,6.70
2019-01-30T11:57:12.196Z,6.50
2019-01-30T11:58:13.203Z,6.50
2019-01-30T11:59:14.251Z,6.50
2019-01-30T12:00:28.884Z,6.50
2019-01-30T12:01:29.903Z,6.50
2019-01-30T12:02:30.918Z,6.50
2019-01-30T12:03:31.926Z,6.50
2019-01-30T12:04:33.071Z,6.50
2019-01-30T12:05:34.471Z,6.50
2019-01-30T12:06:35.506Z,6.40
2019-01-30T12:07:36.571Z,6.50
2019-01-30T12:08:37.760Z,6.50
2019-01-30T12:09:38.788Z,6.60
2019-01-30T12:10:39.827Z,6.60
2019-01-30T12:11:40.849Z,6.50
2019-01-30T12:12:42.067Z,6.50
2019-01-30T12:13:43.132Z,6.50
2019-01-30T12:14:44.159Z,6.50
2019-01-30T12:15:45.180Z,6.50
2019-01-30T12:16:46.187Z,6.40
2019-01-30T12:17:47.308Z,6.40
2019-01-30T12:18:48.319Z,6.40
2019-01-30T12:19:49.346Z,6.50
2019-01-30T12:20:51.948Z,6.40
2019-01-30T12:21:53.172Z,6.30
2019-01-30T12:22:54.196Z,6.40
2019-01-30T12:23:55.388Z,6.40
2019-01-30T12:24:56.407Z,6.30
2019-01-30T12:25:57.432Z,6.30
2019-01-30T12:26:58.451Z,6.30
2019-01-30T12:27:59.480Z,6.40
2019-01-30T12:29:00.515Z,6.30
2019-01-30T12:30:02.848Z,6.30
2019-01-30T12:31:03.862Z,6.30
2019-01-30T12:32:04.989Z,6.30
2019-01-30T12:33:06.104Z,6.30
2019-01-30T12:34:07.119Z,6.30
2019-01-30T12:35:08.432Z,6.30
2019-01-30T12:36:09.442Z,6.30
2019-01-30T12:37:10.471Z,6.30
2019-01-30T12:38:11.557Z,6.40
2019-01-30T12:39:12.616Z,6.40
2019-01-30T12:40:18.283Z,6.40
2019-01-30T12:41:19.403Z,6.40
2019-01-30T12:42:20.436Z,6.40
2019-01-30T12:43:21.651Z,6.50
2019-01-30T12:44:22.861Z,6.50
2019-01-30T12:45:26.472Z,6.50
2019-01-30T12:46:27.481Z,6.50
2019-01-30T12:47:28.492Z,6.50
2019-01-30T12:48:29.515Z,6.50
2019-01-30T12:49:30.549Z,6.50
2019-01-30T12:50:31.739Z,6.50
2019-01-30T12:51:32.729Z,6.60
2019-01-30T12:52:33.748Z,6.60
2019-01-30T12:53:35.005Z,6.70
2019-01-30T12:54:36.012Z,6.70
2019-01-30T12:55:37.044Z,6.80
2019-01-30T12:56:38.049Z,6.90
2019-01-30T12:57:39.164Z,6.90
2019-01-30T12:58:40.184Z,6.90
2019-01-30T12:59:41.200Z,7.00
2019-01-30T13:00:43.040Z,6.90
2019-01-30T13:01:44.065Z,7.00
2019-01-30T13:02:45.180Z,6.90
2019-01-30T13:03:46.223Z,6.90
2019-01-30T13:04:47.264Z,6.90
2019-01-30T13:05:48.567Z,6.90
2019-01-30T13:06:49.579Z,6.90
2019-01-30T13:07:50.798Z,6.90
2019-01-30T13:08:51.833Z,6.90
2019-01-30T13:09:52.852Z,6.90
2019-01-30T13:10:53.956Z,6.90
2019-01-30T13:11:54.984Z,6.80
2019-01-30T13:12:55.996Z,6.70
2019-01-30T13:13:57.021Z,6.70
2019-01-30T13:14:58.040Z,6.70
2019-01-30T13:15:59.052Z,6.70
2019-01-30T13:17:00.079Z,6.70
2019-01-30T13:18:01.087Z,6.60
2019-01-30T13:19:02.300Z,6.50
2019-01-30T13:20:07.124Z,6.50
2019-01-30T13:21:08.144Z,6.40
2019-01-30T13:22:09.152Z,6.30
2019-01-30T13:23:10.281Z,6.30
2019-01-30T13:24:11.393Z,6.40
2019-01-30T13:25:14.839Z,6.20
2019-01-30T13:26:15.961Z,6.20
2019-01-30T13:27:16.985Z,6.20
2019-01-30T13:28:18.020Z,6.30
2019-01-30T13:29:19.054Z,6.20
2019-01-30T13:30:28.540Z,6.10
2019-01-30T13:31:29.549Z,6.10
2019-01-30T13:32:30.628Z,6.10
2019-01-30T13:33:31.653Z,6.20
2019-01-30T13:34:32.680Z,6.20
2019-01-30T13:35:33.792Z,6.20
2019-01-30T13:36:34.870Z,6.20
2019-01-30T13:37:35.964Z,6.10